Time;durP1;ratioP1;P1;durP2;ratioP2;P2;SDS_P1;SDS_P2;PMS_P1;PMS_P2;Temp;Humidity;BMP_temperature;BMP_pressure;BME280_temperature;BME280_humidity;BME280_pressure;Samples;Min_cycle;Max_cycle;Signal;HPM_P1;HPM_P2
2021/11/02 00:02:12;;;;;;;12.30;7.85;;;;;;;;;;5033150;28;20025;-68
2021/11/02 00:04:38;;;;;;;15.70;7.68;;;;;;;;;;5040830;28;20033;-68
2021/11/02 00:07:04;;;;;;;14.20;8.77;;;;;;;;;;5050339;28;20028;-68
2021/11/02 00:09:32;;;;;;;15.60;8.55;;;;;;;;;;5049107;28;20039;-68
2021/11/02 00:11:58;;;;;;;25.55;9.00;;;;;;;;;;5021222;28;20026;-68
2021/11/02 00:14:26;;;;;;;12.38;8.15;;;;;;;;;;5040409;28;20033;-68
2021/11/02 00:16:58;;;;;;;15.90;9.10;;;;;;;;;;5034089;28;20032;-68
2021/11/02 00:19:26;;;;;;;12.02;8.48;;;;;;;;;;5031369;28;20120;-68
2021/11/02 00:21:54;;;;;;;15.27;9.23;;;;;;;;;;5037984;28;20458;-68
2021/11/02 00:26:59;;;;;;;13.25;9.73;;;;;;;;;;5038574;28;20021;-68
2021/11/02 00:29:25;;;;;;;21.67;10.43;;;;;;;;;;5045941;28;20021;-68
2021/11/02 00:31:51;;;;;;;16.48;10.45;;;;;;;;;;5053379;28;20021;-68
2021/11/02 00:34:17;;;;;;;16.35;9.80;;;;;;;;;;5060102;28;20021;-68
2021/11/02 00:36:43;;;;;;;19.15;11.25;;;;;;;;;;5047363;28;20029;-68
2021/11/02 00:39:09;;;;;;;20.98;12.00;;;;;;;;;;5052343;28;20025;-68
2021/11/02 00:41:35;;;;;;;17.35;11.02;;;;;;;;;;5033874;28;20025;-68
2021/11/02 00:44:01;;;;;;;19.35;11.27;;;;;;;;;;5044315;28;20492;-68
2021/11/02 00:46:32;;;;;;;18.63;10.57;;;;;;;;;;5040228;28;20421;-68
2021/11/02 00:48:59;;;;;;;19.33;11.02;;;;;;;;;;5034580;28;20032;-68
2021/11/02 00:51:25;;;;;;;18.70;11.38;;;;;;;;;;5040121;28;20080;-68
2021/11/02 00:53:51;;;;;;;16.63;11.57;;;;;;;;;;5052816;28;20544;-68
2021/11/02 00:56:17;;;;;;;17.00;11.05;;;;;;;;;;5047047;28;20025;-68
2021/11/02 00:58:43;;;;;;;23.10;11.15;;;;;;;;;;5033746;28;20028;-68
2021/11/02 01:01:09;;;;;;;18.55;11.75;;;;;;;;;;5052607;28;20025;-68
2021/11/02 01:03:37;;;;;;;16.90;10.93;;;;;;;;;;5046595;28;20021;-68
2021/11/02 01:06:03;;;;;;;15.07;10.63;;;;;;;;;;5053253;28;20025;-68
2021/11/02 01:08:29;;;;;;;15.40;10.65;;;;;;;;;;5052207;28;20028;-68
2021/11/02 01:10:55;;;;;;;14.20;10.30;;;;;;;;;;5037714;28;20028;-68
2021/11/02 01:13:22;;;;;;;20.52;10.77;;;;;;;;;;5049941;28;20040;-68
2021/11/02 01:15:48;;;;;;;19.25;11.50;;;;;;;;;;5047512;28;20020;-68
2021/11/02 01:18:14;;;;;;;19.05;10.52;;;;;;;;;;5052227;28;20021;-68
2021/11/02 01:20:40;;;;;;;18.48;11.13;;;;;;;;;;5047419;28;20512;-68
2021/11/02 01:23:07;;;;;;;18.08;10.77;;;;;;;;;;5049800;28;20808;-68
2021/11/02 01:25:33;;;;;;;17.67;11.30;;;;;;;;;;5036129;28;20067;-68
2021/11/02 01:27:59;;;;;;;17.27;11.27;;;;;;;;;;5033069;28;20106;-69
2021/11/02 01:30:26;;;;;;;17.23;10.07;;;;;;;;;;5050990;28;20028;-68
2021/11/02 01:32:52;;;;;;;19.23;10.45;;;;;;;;;;5050458;28;20059;-68
2021/11/02 01:35:18;;;;;;;14.52;10.50;;;;;;;;;;5043221;28;20515;-68
2021/11/02 01:37:46;;;;;;;20.25;12.05;;;;;;;;;;5025039;28;20029;-68
2021/11/02 01:40:13;;;;;;;16.25;11.40;;;;;;;;;;5048666;28;20115;-67
2021/11/02 01:42:40;;;;;;;20.30;11.25;;;;;;;;;;5052448;28;20033;-68
2021/11/02 01:45:07;;;;;;;19.90;11.20;;;;;;;;;;5048776;28;20103;-68
2021/11/02 01:47:34;;;;;;;16.52;11.50;;;;;;;;;;5042611;28;20049;-68
2021/11/02 01:50:00;;;;;;;16.63;10.05;;;;;;;;;;5050857;28;20029;-68
2021/11/02 01:52:26;;;;;;;17.58;10.55;;;;;;;;;;5044490;28;20017;-67
2021/11/02 01:54:52;;;;;;;16.23;10.95;;;;;;;;;;5033664;28;20055;-68
2021/11/02 01:57:20;;;;;;;15.73;11.77;;;;;;;;;;5052612;28;20032;-68
2021/11/02 01:59:46;;;;;;;27.55;11.40;;;;;;;;;;5049379;28;20033;-68
2021/11/02 02:02:21;;;;;;;19.20;10.68;;;;;;;;;;5035707;28;20021;-68
2021/11/02 02:04:51;;;;;;;15.75;9.80;;;;;;;;;;5040253;28;20029;-67
2021/11/02 02:07:23;;;;;;;18.33;10.23;;;;;;;;;;5051412;28;20017;-68
2021/11/02 02:10:13;;;;;;;15.65;10.20;;;;;;;;;;5048839;28;20029;-67
2021/11/02 02:13:01;;;;;;;14.95;10.57;;;;;;;;;;5020211;28;20125;-68
2021/11/02 02:15:34;;;;;;;17.45;10.73;;;;;;;;;;5031649;28;20043;-68
2021/11/02 02:18:06;;;;;;;17.73;11.02;;;;;;;;;;5049112;28;20024;-68
2021/11/02 02:20:39;;;;;;;16.83;11.23;;;;;;;;;;5048678;28;20405;-68
2021/11/02 02:23:23;;;;;;;17.75;11.70;;;;;;;;;;5048844;28;20029;-68
2021/11/02 02:26:06;;;;;;;17.60;11.55;;;;;;;;;;5044234;28;20074;-68
2021/11/02 02:28:35;;;;;;;18.17;12.48;;;;;;;;;;5050617;28;20370;-67
2021/11/02 02:31:04;;;;;;;19.55;11.90;;;;;;;;;;5043828;28;20037;-68
2021/11/02 02:33:31;;;;;;;16.92;11.77;;;;;;;;;;5051746;28;20027;-68
2021/11/02 02:35:57;;;;;;;16.25;11.50;;;;;;;;;;5025227;28;20078;-67
2021/11/02 02:38:25;;;;;;;22.27;11.88;;;;;;;;;;5039959;28;20113;-68
2021/11/02 02:40:51;;;;;;;18.40;11.93;;;;;;;;;;5050722;28;20048;-68
2021/11/02 02:43:19;;;;;;;20.92;12.48;;;;;;;;;;5038969;28;20040;-68
2021/11/02 02:45:45;;;;;;;16.70;12.07;;;;;;;;;;5032979;28;20041;-68
2021/11/02 02:48:14;;;;;;;18.70;12.85;;;;;;;;;;5038898;28;20031;-67
2021/11/02 02:50:41;;;;;;;18.25;12.00;;;;;;;;;;5024206;28;20118;-68
2021/11/02 02:53:07;;;;;;;17.95;12.63;;;;;;;;;;5050335;28;20551;-68
2021/11/02 02:55:34;;;;;;;18.00;12.52;;;;;;;;;;5051791;28;20032;-68
2021/11/02 02:58:01;;;;;;;20.95;11.90;;;;;;;;;;5044767;28;20029;-68
2021/11/02 03:00:27;;;;;;;19.80;11.98;;;;;;;;;;5049768;28;20508;-68
2021/11/02 03:02:54;;;;;;;24.95;11.80;;;;;;;;;;5050642;28;20112;-68
2021/11/02 03:05:24;;;;;;;16.58;11.55;;;;;;;;;;5050231;28;20494;-68
2021/11/02 03:07:54;;;;;;;18.38;13.00;;;;;;;;;;5045634;28;20398;-68
2021/11/02 03:10:20;;;;;;;21.02;12.82;;;;;;;;;;5048069;28;20100;-68
2021/11/02 03:12:48;;;;;;;19.55;12.27;;;;;;;;;;5043704;28;20032;-68
2021/11/02 03:51:29;;;;;;;20.65;13.52;;;;;;;;;;5039399;28;20037;-67
2021/11/02 03:56:58;;;;;;;17.08;13.02;;;;;;;;;;5036492;28;20043;-68
2021/11/02 04:22:07;;;;;;;22.13;14.25;;;;;;;;;;5041887;28;20056;-68
2021/11/02 04:48:18;;;;;;;22.67;12.65;;;;;;;;;;5039209;28;20037;-68
2021/11/02 05:12:59;;;;;;;23.45;14.57;;;;;;;;;;5040421;28;20104;-68
2021/11/02 06:01:10;;;;;;;23.17;15.25;;;;;;;;;;5052444;28;20037;-68
2021/11/02 06:04:09;;;;;;;28.83;16.10;;;;;;;;;;5052137;28;20139;-67
2021/11/02 06:09:20;;;;;;;24.80;15.75;;;;;;;;;;5039668;28;20029;-68
2021/11/02 06:23:37;;;;;;;27.65;17.23;;;;;;;;;;5050658;28;20072;-68
2021/11/02 06:39:41;;;;;;;29.17;16.88;;;;;;;;;;5065341;28;20036;-67
2021/11/02 06:53:19;;;;;;;31.38;17.98;;;;;;;;;;5066641;28;20040;-67
2021/11/02 06:56:49;;;;;;;25.40;18.00;;;;;;;;;;5049290;28;20426;-67
2021/11/02 07:18:32;;;;;;;26.58;18.83;;;;;;;;;;5066576;28;20077;-67
2021/11/02 07:21:09;;;;;;;27.08;20.25;;;;;;;;;;5066309;28;20120;-66
2021/11/02 07:23:50;;;;;;;31.23;19.15;;;;;;;;;;5072472;28;20028;-66
2021/11/02 07:26:39;;;;;;;32.20;19.25;;;;;;;;;;5068492;28;20410;-66
2021/11/02 07:29:32;;;;;;;28.80;17.70;;;;;;;;;;5065184;28;20542;-66
2021/11/02 08:47:11;;;;;;;12.07;5.10;;;;;;;;;;5062853;28;20032;-69
2021/11/02 08:49:43;;;;;;;8.25;4.30;;;;;;;;;;5067943;28;20021;-69
2021/11/02 08:52:09;;;;;;;10.63;3.55;;;;;;;;;;5048770;28;20032;-69
2021/11/02 08:54:36;;;;;;;12.30;4.45;;;;;;;;;;5065181;28;20040;-69
2021/11/02 08:57:03;;;;;;;6.78;3.63;;;;;;;;;;5070446;28;20159;-69
2021/11/02 08:59:33;;;;;;;10.73;3.75;;;;;;;;;;5036525;28;20056;-69
2021/11/02 09:01:59;;;;;;;15.75;3.70;;;;;;;;;;5073200;28;20016;-69
2021/11/02 09:04:29;;;;;;;7.82;3.47;;;;;;;;;;5067103;28;20029;-69
2021/11/02 09:06:55;;;;;;;4.15;2.67;;;;;;;;;;5073552;28;20328;-69
2021/11/02 09:09:21;;;;;;;3.92;2.30;;;;;;;;;;5046331;28;20029;-69
2021/11/02 09:11:48;;;;;;;5.95;2.38;;;;;;;;;;5069824;28;20398;-69
2021/11/02 09:14:14;;;;;;;;;;;;;;;;;;5061377;28;20025;-69
2021/11/02 09:16:40;;;;;;;5.90;2.70;;;;;;;;;;5068712;28;20472;-69
2021/11/02 09:19:07;;;;;;;8.48;2.60;;;;;;;;;;5065972;28;20029;-69
2021/11/02 09:21:34;;;;;;;6.60;2.47;;;;;;;;;;5069310;28;20020;-69
2021/11/02 09:24:01;;;;;;;6.05;2.97;;;;;;;;;;5069388;28;20016;-69
2021/11/02 09:26:29;;;;;;;8.85;2.42;;;;;;;;;;5073247;28;20391;-69
2021/11/02 09:28:55;;;;;;;11.07;3.17;;;;;;;;;;5068800;28;20055;-69
2021/11/02 09:31:27;;;;;;;4.28;2.80;;;;;;;;;;5066616;28;20482;-69
2021/11/02 09:33:54;;;;;;;10.73;3.28;;;;;;;;;;5069394;28;20107;-69
2021/11/02 09:36:21;;;;;;;11.00;4.50;;;;;;;;;;5067154;28;20067;-69
2021/11/02 09:38:50;;;;;;;8.52;3.03;;;;;;;;;;5061258;28;20065;-69
2021/11/02 09:41:30;;;;;;;9.63;2.97;;;;;;;;;;5067202;28;20112;-69
2021/11/02 09:44:16;;;;;;;5.53;2.63;;;;;;;;;;5070444;28;20513;-68
2021/11/02 09:46:59;;;;;;;4.75;2.55;;;;;;;;;;5071437;28;20525;-69
2021/11/02 09:49:25;;;;;;;8.30;3.22;;;;;;;;;;5066038;28;20075;-68
2021/11/02 09:52:11;;;;;;;7.05;3.22;;;;;;;;;;5061899;28;20406;-68
2021/11/02 09:54:42;;;;;;;7.22;4.15;;;;;;;;;;5049954;28;20045;-69
2021/11/02 09:57:29;;;;;;;9.15;4.72;;;;;;;;;;5063227;28;20082;-68
2021/11/02 09:59:59;;;;;;;13.07;5.47;;;;;;;;;;5065364;28;20064;-68
2021/11/02 10:02:48;;;;;;;9.98;6.20;;;;;;;;;;5067203;28;20024;-69
2021/11/02 10:05:19;;;;;;;9.50;5.45;;;;;;;;;;5065343;28;20032;-68
2021/11/02 10:08:02;;;;;;;7.20;5.03;;;;;;;;;;5062596;28;20111;-68
2021/11/02 10:10:36;;;;;;;7.25;4.57;;;;;;;;;;5064093;28;20337;-69
2021/11/02 10:13:19;;;;;;;8.43;4.53;;;;;;;;;;5068112;28;20025;-68
2021/11/02 10:15:48;;;;;;;8.15;4.45;;;;;;;;;;5043400;28;20037;-69
2021/11/02 10:18:21;;;;;;;10.00;4.10;;;;;;;;;;5069207;28;20023;-69
2021/11/02 10:20:53;;;;;;;9.43;5.40;;;;;;;;;;5061959;28;20059;-69
2021/11/02 10:23:28;;;;;;;9.95;5.68;;;;;;;;;;5071990;28;20378;-69
2021/11/02 10:25:56;;;;;;;14.48;6.70;;;;;;;;;;5063539;28;20032;-69
2021/11/02 10:28:25;;;;;;;14.65;7.35;;;;;;;;;;5061991;28;20115;-69
2021/11/02 10:31:11;;;;;;;13.45;7.78;;;;;;;;;;5062507;28;20033;-69
2021/11/02 10:33:38;;;;;;;15.30;9.55;;;;;;;;;;5071577;28;20107;-69
2021/11/02 10:36:13;;;;;;;12.32;8.75;;;;;;;;;;5063768;28;20101;-69
2021/11/02 10:38:53;;;;;;;12.95;9.02;;;;;;;;;;5059827;28;20021;-69
2021/11/02 10:41:21;;;;;;;14.20;9.38;;;;;;;;;;5071545;28;20028;-69
2021/11/02 10:43:47;;;;;;;17.42;10.30;;;;;;;;;;5068452;28;20178;-69
2021/11/02 10:46:14;;;;;;;19.23;9.98;;;;;;;;;;5064885;28;20031;-69
2021/11/02 10:48:43;;;;;;;12.85;9.02;;;;;;;;;;5059942;28;20111;-69
2021/11/02 10:51:24;;;;;;;15.55;9.13;;;;;;;;;;5066528;28;20021;-69
2021/11/02 10:54:16;;;;;;;12.07;8.40;;;;;;;;;;5067202;28;20028;-69
2021/11/02 10:56:46;;;;;;;11.40;7.15;;;;;;;;;;5041389;28;20052;-69
2021/11/02 10:59:16;;;;;;;11.82;6.93;;;;;;;;;;5057479;28;20147;-69
2021/11/02 11:01:47;;;;;;;12.45;7.40;;;;;;;;;;5067913;28;20033;-69
2021/11/02 11:04:14;;;;;;;11.82;6.82;;;;;;;;;;5062766;28;20024;-69
2021/11/02 11:06:43;;;;;;;11.50;5.80;;;;;;;;;;5044052;28;20106;-69
2021/11/02 11:09:12;;;;;;;11.25;6.07;;;;;;;;;;5060104;28;20043;-69
2021/11/02 11:11:39;;;;;;;9.60;5.53;;;;;;;;;;5062292;28;20395;-69
2021/11/02 11:14:09;;;;;;;9.23;4.75;;;;;;;;;;5044893;28;20054;-69
2021/11/02 11:16:37;;;;;;;9.07;4.35;;;;;;;;;;5071167;28;20457;-69
2021/11/02 11:19:08;;;;;;;13.13;5.03;;;;;;;;;;5060427;28;20021;-69
2021/11/02 11:21:35;;;;;;;9.48;3.83;;;;;;;;;;5070584;28;20028;-69
2021/11/02 11:24:07;;;;;;;9.13;3.45;;;;;;;;;;5058069;28;20122;-69
2021/11/02 11:26:33;;;;;;;;;;;;;;;;;;5063367;28;20017;-69
2021/11/02 11:28:59;;;;;;;11.13;3.47;;;;;;;;;;5055676;28;20361;-69
2021/11/02 11:31:28;;;;;;;7.78;3.22;;;;;;;;;;5061390;28;20454;-69
2021/11/02 11:34:02;;;;;;;7.88;3.10;;;;;;;;;;5065799;28;20525;-69
2021/11/02 11:36:28;;;;;;;4.32;2.40;;;;;;;;;;5060727;28;20036;-69
2021/11/02 11:38:58;;;;;;;5.53;2.60;;;;;;;;;;5067648;28;20406;-69
2021/11/02 11:41:25;;;;;;;6.95;2.58;;;;;;;;;;5064075;28;20033;-69
2021/11/02 11:43:53;;;;;;;7.65;3.03;;;;;;;;;;5066047;28;20036;-69
2021/11/02 11:46:19;;;;;;;5.63;2.80;;;;;;;;;;5063243;28;20025;-69
2021/11/02 11:48:54;;;;;;;7.28;2.83;;;;;;;;;;5039237;28;20495;-69
2021/11/02 11:51:21;;;;;;;5.82;2.92;;;;;;;;;;5069564;28;20032;-70
2021/11/02 11:53:48;;;;;;;8.68;3.35;;;;;;;;;;5050330;28;20024;-69
2021/11/02 11:56:16;;;;;;;5.95;2.83;;;;;;;;;;5046244;28;20035;-69
2021/11/02 11:58:50;;;;;;;10.48;3.00;;;;;;;;;;5066357;28;20372;-69
2021/11/02 12:01:21;;;;;;;4.55;2.60;;;;;;;;;;5062220;28;20025;-69
2021/11/02 12:03:47;;;;;;;;;;;;;;;;;;5068382;28;20024;-70
2021/11/02 12:06:16;;;;;;;10.55;3.05;;;;;;;;;;5058200;28;19990;-69
2021/11/02 12:09:00;;;;;;;9.82;2.90;;;;;;;;;;5040873;28;20021;-69
2021/11/02 12:11:30;;;;;;;9.18;4.22;;;;;;;;;;5062402;28;20024;-71
2021/11/02 12:14:07;;;;;;;4.97;3.72;;;;;;;;;;5043070;28;20075;-70
2021/11/02 12:16:40;;;;;;;8.57;4.25;;;;;;;;;;5070554;28;20395;-71
2021/11/02 12:19:06;;;;;;;8.82;4.50;;;;;;;;;;5062634;28;20574;-70
2021/11/02 12:21:33;;;;;;;6.22;4.35;;;;;;;;;;5066493;28;20229;-70
2021/11/02 12:24:04;;;;;;;6.15;5.45;;;;;;;;;;5070603;28;20414;-70
2021/11/02 12:26:37;;;;;;;12.68;7.15;;;;;;;;;;5066997;28;20021;-70
2021/11/02 12:29:06;;;;;;;7.18;4.53;;;;;;;;;;5059334;28;20392;-71
2021/11/02 12:31:33;;;;;;;9.02;4.20;;;;;;;;;;5070546;28;20074;-71
2021/11/02 12:34:00;;;;;;;7.30;5.00;;;;;;;;;;5073686;28;20021;-70
2021/11/02 12:36:27;;;;;;;6.57;4.88;;;;;;;;;;5073167;28;20025;-70
2021/11/02 12:39:00;;;;;;;11.63;7.45;;;;;;;;;;5070398;28;20056;-71
2021/11/02 12:41:26;;;;;;;9.52;5.50;;;;;;;;;;5066833;28;20020;-71
2021/11/02 12:44:01;;;;;;;10.82;5.20;;;;;;;;;;5063717;28;20029;-71
2021/11/02 12:46:29;;;;;;;8.30;5.68;;;;;;;;;;5064194;28;20486;-71
2021/11/02 12:48:57;;;;;;;7.35;5.15;;;;;;;;;;5062598;28;20032;-71
2021/11/02 12:51:25;;;;;;;6.97;4.97;;;;;;;;;;5066956;28;20089;-71
2021/11/02 12:53:52;;;;;;;6.25;5.43;;;;;;;;;;5072325;28;20031;-70
2021/11/02 12:56:20;;;;;;;10.70;5.95;;;;;;;;;;5073636;28;20024;-70
2021/11/02 12:58:48;;;;;;;8.52;6.50;;;;;;;;;;5061591;28;20040;-71
2021/11/02 13:01:28;;;;;;;11.20;6.80;;;;;;;;;;5062007;28;20103;-71
2021/11/02 13:03:55;;;;;;;12.75;6.63;;;;;;;;;;5064180;28;20036;-71
2021/11/02 13:06:21;;;;;;;9.50;5.93;;;;;;;;;;5071997;28;20025;-72
2021/11/02 13:08:54;;;;;;;15.23;6.65;;;;;;;;;;5069333;28;20021;-71
2021/11/02 13:11:21;;;;;;;9.07;6.50;;;;;;;;;;5069080;28;20052;-71
2021/11/02 13:13:58;;;;;;;10.57;6.97;;;;;;;;;;5065020;28;20048;-72
2021/11/02 13:16:24;;;;;;;16.98;7.60;;;;;;;;;;5066611;28;20025;-71
2021/11/02 13:18:51;;;;;;;18.70;6.50;;;;;;;;;;5069708;28;20036;-70
2021/11/02 13:21:18;;;;;;;14.50;9.43;;;;;;;;;;5072038;28;20027;-70
2021/11/02 13:23:46;;;;;;;18.13;10.38;;;;;;;;;;5067264;28;20024;-69
2021/11/02 13:26:17;;;;;;;13.07;9.88;;;;;;;;;;5069861;28;20066;-70
2021/11/02 13:28:43;;;;;;;17.40;9.18;;;;;;;;;;5067254;28;20024;-70
2021/11/02 13:31:24;;;;;;;16.50;9.23;;;;;;;;;;5071635;28;20403;-70
2021/11/02 13:33:57;;;;;;;11.45;7.93;;;;;;;;;;5072746;28;20714;-70
2021/11/02 13:36:23;;;;;;;13.07;7.07;;;;;;;;;;5070331;28;20593;-71
2021/11/02 13:38:49;;;;;;;11.52;5.10;;;;;;;;;;5068012;28;20032;-70
2021/11/02 13:41:18;;;;;;;8.48;6.18;;;;;;;;;;5067598;28;20415;-70
2021/11/02 13:43:45;;;;;;;10.40;5.65;;;;;;;;;;5069126;28;20120;-70
2021/11/02 13:46:12;;;;;;;11.73;5.78;;;;;;;;;;5069513;28;20402;-71
2021/11/02 13:48:39;;;;;;;8.82;4.55;;;;;;;;;;5068465;28;20049;-70
2021/11/02 13:51:06;;;;;;;8.05;4.63;;;;;;;;;;5069395;28;20017;-70
2021/11/02 13:53:34;;;;;;;7.38;4.68;;;;;;;;;;5070461;28;20032;-70
2021/11/02 13:56:01;;;;;;;7.43;4.65;;;;;;;;;;5071542;28;20035;-70
2021/11/02 13:58:27;;;;;;;9.95;5.07;;;;;;;;;;5064356;28;20064;-71
2021/11/02 14:00:53;;;;;;;8.45;4.38;;;;;;;;;;5063835;28;20384;-70
2021/11/02 14:03:24;;;;;;;7.22;4.45;;;;;;;;;;5072189;28;20013;-71
2021/11/02 14:05:51;;;;;;;7.90;4.07;;;;;;;;;;5071543;28;20036;-71
2021/11/02 14:08:19;;;;;;;10.32;4.60;;;;;;;;;;5066973;28;20024;-70
2021/11/02 14:10:55;;;;;;;5.85;4.15;;;;;;;;;;5071657;28;20023;-71
2021/11/02 14:13:40;;;;;;;8.73;4.65;;;;;;;;;;5050616;28;20604;-71
2021/11/02 14:16:07;;;;;;;8.80;4.70;;;;;;;;;;5072129;28;20452;-71
2021/11/02 14:18:33;;;;;;;6.15;4.70;;;;;;;;;;5066158;28;20548;-71
2021/11/02 14:20:59;;;;;;;17.35;5.15;;;;;;;;;;5070246;28;20029;-71
2021/11/02 14:23:32;;;;;;;5.53;5.03;;;;;;;;;;5070285;28;20105;-70
2021/11/02 14:26:16;;;;;;;9.25;5.30;;;;;;;;;;5068947;28;20044;-71
2021/11/02 14:28:46;;;;;;;8.48;6.40;;;;;;;;;;5064781;28;20559;-71
2021/11/02 14:31:52;;;;;;;8.50;5.32;;;;;;;;;;5069924;28;20025;-71
2021/11/02 14:34:27;;;;;;;10.90;5.20;;;;;;;;;;4971505;28;20314;-71
2021/11/02 14:37:10;;;;;;;6.70;4.93;;;;;;;;;;4966264;28;20041;-70
2021/11/02 14:39:55;;;;;;;6.28;4.60;;;;;;;;;;5032260;28;20036;-71
2021/11/02 14:42:40;;;;;;;6.70;5.60;;;;;;;;;;5071268;28;20040;-71
2021/11/02 14:45:07;;;;;;;5.57;5.05;;;;;;;;;;5050189;28;20035;-71
2021/11/02 14:47:37;;;;;;;8.95;5.22;;;;;;;;;;5069523;28;20086;-71
2021/11/02 14:50:23;;;;;;;7.82;4.22;;;;;;;;;;5065262;28;20028;-71
2021/11/02 14:52:50;;;;;;;6.93;4.50;;;;;;;;;;5057910;28;20511;-71
2021/11/02 14:55:36;;;;;;;8.90;5.13;;;;;;;;;;5069166;28;20460;-71
2021/11/02 14:58:02;;;;;;;5.38;4.45;;;;;;;;;;5054520;28;20016;-72
2021/11/02 15:00:38;;;;;;;6.82;4.38;;;;;;;;;;5069403;28;20674;-71
2021/11/02 15:03:15;;;;;;;5.60;4.95;;;;;;;;;;5069282;28;20033;-71
2021/11/02 15:05:41;;;;;;;7.78;5.00;;;;;;;;;;5068726;28;20043;-71
2021/11/02 15:08:09;;;;;;;6.53;5.90;;;;;;;;;;5066472;28;20105;-71
2021/11/02 15:10:35;;;;;;;8.27;4.93;;;;;;;;;;5065381;28;20028;-71
2021/11/02 15:13:01;;;;;;;7.57;4.90;;;;;;;;;;5068598;28;20074;-71
2021/11/02 15:15:30;;;;;;;4.88;4.40;;;;;;;;;;5047781;28;20037;-72
2021/11/02 15:18:04;;;;;;;5.05;4.60;;;;;;;;;;5067505;28;20016;-71
2021/11/02 15:20:30;;;;;;;7.10;4.13;;;;;;;;;;5066756;28;20742;-71
2021/11/02 15:22:57;;;;;;;4.38;3.97;;;;;;;;;;5066463;28;20287;-71
2021/11/02 15:25:23;;;;;;;6.25;4.07;;;;;;;;;;5068462;28;20027;-71
2021/11/02 15:27:57;;;;;;;5.00;3.85;;;;;;;;;;5065647;28;20506;-71
2021/11/02 15:30:23;;;;;;;4.85;3.72;;;;;;;;;;5050074;28;20028;-72
2021/11/02 15:32:50;;;;;;;3.95;3.65;;;;;;;;;;5069685;28;20020;-72
2021/11/02 15:35:17;;;;;;;6.70;3.85;;;;;;;;;;5048514;28;20031;-72
2021/11/02 15:37:43;;;;;;;;;;;;;;;;;;5064752;28;20024;-72
2021/11/02 15:40:09;;;;;;;;;;;;;;;;;;5066292;28;19996;-73
2021/11/02 15:42:35;;;;;;;;;;;;;;;;;;5068406;28;19961;-73
2021/11/02 15:45:01;;;;;;;;;;;;;;;;;;5068476;28;19963;-73
2021/11/02 15:47:27;;;;;;;;;;;;;;;;;;5069931;28;19978;-73
2021/11/02 15:49:54;;;;;;;;;;;;;;;;;;5056325;28;19912;-73
2021/11/02 15:52:20;;;;;;;;;;;;;;;;;;5068999;28;19914;-73
2021/11/02 15:54:46;;;;;;;;;;;;;;;;;;5061824;28;19920;-73
2021/11/02 15:57:12;;;;;;;;;;;;;;;;;;5069605;28;19909;-74
2021/11/02 15:59:38;;;;;;;;;;;;;;;;;;5062716;28;20290;-73
2021/11/02 16:02:04;;;;;;;;;;;;;;;;;;5064801;28;19915;-73
2021/11/02 16:04:30;;;;;;;;;;;;;;;;;;5063978;28;19944;-73
2021/11/02 16:06:56;;;;;;;;;;;;;;;;;;5048738;28;19986;-72
2021/11/02 16:09:22;;;;;;;;;;;;;;;;;;5063363;28;20049;-73
2021/11/02 16:11:49;;;;;;;;;;;;;;;;;;5066207;28;19939;-73
2021/11/02 16:14:15;;;;;;;;;;;;;;;;;;5066962;28;19999;-73
2021/11/02 16:16:41;;;;;;;;;;;;;;;;;;5065293;28;20750;-73
2021/11/02 16:19:08;;;;;;;;;;;;;;;;;;5065721;28;20390;-73
2021/11/02 16:21:34;;;;;;;;;;;;;;;;;;5066810;28;19909;-72
2021/11/02 16:24:00;;;;;;;;;;;;;;;;;;5063401;28;19918;-73
2021/11/02 16:26:26;;;;;;;;;;;;;;;;;;5059369;28;19908;-73
2021/11/02 16:28:58;;;;;;;;;;;;;;;;;;5062032;28;19994;-73
2021/11/02 16:31:24;;;;;;;;;;;;;;;;;;5065367;28;19908;-73
2021/11/02 16:33:50;;;;;;;;;;;;;;;;;;5064210;28;20385;-73
2021/11/02 16:36:16;;;;;;;;;;;;;;;;;;5066869;28;20367;-73
2021/11/02 16:38:43;;;;;;;;;;;;;;;;;;5060137;28;19963;-73
2021/11/02 16:41:08;;;;;;;;;;;;;;;;;;5063127;28;20005;-72
2021/11/02 16:43:34;;;;;;;;;;;;;;;;;;5063477;28;19940;-73
2021/11/02 16:46:00;;;;;;;;;;;;;;;;;;5062850;28;19952;-73
2021/11/02 16:48:26;;;;;;;;;;;;;;;;;;5066923;28;19931;-73
2021/11/02 16:50:53;;;;;;;;;;;;;;;;;;5066821;28;19948;-73
2021/11/02 16:53:19;;;;;;;;;;;;;;;;;;5048396;28;19908;-73
2021/11/02 16:55:45;;;;;;;;;;;;;;;;;;5065267;28;19924;-74
2021/11/02 16:58:11;;;;;;;;;;;;;;;;;;5058817;28;19916;-73
2021/11/02 17:00:37;;;;;;;;;;;;;;;;;;5060717;28;19974;-74
2021/11/02 17:03:03;;;;;;;;;;;;;;;;;;5066510;28;20316;-73
2021/11/02 17:05:29;;;;;;;;;;;;;;;;;;5065076;28;20004;-73
2021/11/02 17:07:55;;;;;;;;;;;;;;;;;;5064302;28;20149;-73
2021/11/02 17:10:21;;;;;;;;;;;;;;;;;;5061899;28;19943;-73
2021/11/02 17:12:48;;;;;;;;;;;;;;;;;;5069617;28;19962;-73
2021/11/02 17:15:14;;;;;;;;;;;;;;;;;;5050040;28;19982;-73
2021/11/02 17:17:40;;;;;;;;;;;;;;;;;;5068606;28;20409;-73
2021/11/02 17:20:06;;;;;;;;;;;;;;;;;;5067237;28;19908;-73
2021/11/02 17:22:32;;;;;;;;;;;;;;;;;;5067195;28;19957;-73
2021/11/02 17:24:58;;;;;;;;;;;;;;;;;;5064563;22;19948;-69
2021/11/02 17:27:24;;;;;;;;;;;;;;;;;;5058748;28;19947;-69
2021/11/02 17:29:50;;;;;;;;;;;;;;;;;;5043172;28;19908;-69
2021/11/02 17:32:16;;;;;;;;;;;;;;;;;;5055029;28;20427;-69
2021/11/02 17:34:42;;;;;;;;;;;;;;;;;;5046695;28;20165;-70
2021/11/02 17:37:08;;;;;;;;;;;;;;;;;;5034771;28;19915;-70
2021/11/02 17:39:34;;;;;;;;;;;;;;;;;;5054030;28;19948;-70
2021/11/02 17:42:00;;;;;;;;;;;;;;;;;;5051584;28;19920;-69
2021/11/02 17:44:26;;;;;;;;;;;;;;;;;;5052671;28;20393;-70
2021/11/02 17:46:52;;;;;;;;;;;;;;;;;;5039925;28;19915;-69
2021/11/02 17:49:18;;;;;;;;;;;;;;;;;;5051155;28;20753;-69
2021/11/02 17:51:44;;;;;;;;;;;;;;;;;;5046451;28;20023;-69
2021/11/02 17:54:10;;;;;;;;;;;;;;;;;;5052483;28;19912;-69
2021/11/02 17:56:38;;;;;;;;;;;;;;;;;;5053812;28;20324;-70
2021/11/02 17:59:04;;;;;;;;;;;;;;;;;;5046086;28;19931;-69
2021/11/02 18:01:30;;;;;;;;;;;;;;;;;;5032445;28;19919;-69
2021/11/02 18:03:56;;;;;;;;;;;;;;;;;;5038605;28;19908;-69
2021/11/02 18:06:22;;;;;;;;;;;;;;;;;;5048080;28;19928;-69
2021/11/02 18:08:48;;;;;;;;;;;;;;;;;;5047135;28;20342;-69
2021/11/02 18:11:15;;;;;;;;;;;;;;;;;;5048109;28;19920;-69
2021/11/02 18:13:41;;;;;;;;;;;;;;;;;;5048428;28;19913;-69
2021/11/02 18:16:07;;;;;;;;;;;;;;;;;;5048938;28;19913;-69
2021/11/02 18:18:37;;;;;;;;;;;;;;;;;;5050057;28;19912;-70
2021/11/02 18:21:03;;;;;;;;;;;;;;;;;;5045285;28;19963;-69
2021/11/02 18:23:29;;;;;;;;;;;;;;;;;;5046391;28;19947;-69
2021/11/02 18:25:55;;;;;;;;;;;;;;;;;;5052074;28;20087;-69
2021/11/02 18:28:21;;;;;;;;;;;;;;;;;;5053069;28;19963;-70
2021/11/02 18:30:47;;;;;;;;;;;;;;;;;;5049951;28;19946;-69
2021/11/02 18:33:13;;;;;;;;;;;;;;;;;;5053567;28;19959;-69
2021/11/02 18:35:39;;;;;;;;;;;;;;;;;;5033763;28;19986;-69
2021/11/02 18:38:05;;;;;;;;;;;;;;;;;;5055604;28;19939;-69
2021/11/02 18:40:31;;;;;;;;;;;;;;;;;;5052397;28;19948;-69
2021/11/02 18:42:57;;;;;;;;;;;;;;;;;;5050789;28;19951;-69
2021/11/02 18:45:23;;;;;;;;;;;;;;;;;;5054771;28;20336;-69
2021/11/02 18:47:49;;;;;;;;;;;;;;;;;;5048431;28;19955;-69
2021/11/02 18:50:14;;;;;;;;;;;;;;;;;;5054275;28;19989;-69
2021/11/02 18:52:41;;;;;;;;;;;;;;;;;;5058827;28;19964;-69
2021/11/02 18:55:07;;;;;;;;;;;;;;;;;;5049138;28;19966;-70
2021/11/02 18:57:33;;;;;;;;;;;;;;;;;;5055441;28;19956;-69
2021/11/02 18:59:59;;;;;;;;;;;;;;;;;;5041747;28;19955;-69
2021/11/02 19:02:25;;;;;;;;;;;;;;;;;;5047491;28;19947;-69
2021/11/02 19:04:50;;;;;;;;;;;;;;;;;;5040861;28;19956;-69
2021/11/02 19:07:16;;;;;;;;;;;;;;;;;;5047092;28;19932;-69
2021/11/02 19:09:42;;;;;;;;;;;;;;;;;;5046919;28;19955;-69
2021/11/02 19:12:08;;;;;;;;;;;;;;;;;;5040808;28;19955;-69
2021/11/02 19:14:34;;;;;;;;;;;;;;;;;;5045981;28;19981;-69
2021/11/02 19:17:00;;;;;;;;;;;;;;;;;;5049687;28;19959;-70
2021/11/02 19:19:26;;;;;;;;;;;;;;;;;;5028337;28;19948;-70
2021/11/02 19:21:52;;;;;;;;;;;;;;;;;;5053044;28;19970;-69
2021/11/02 19:24:18;;;;;;;;;;;;;;;;;;5037004;28;20385;-69
2021/11/02 19:26:44;;;;;;;;;;;;;;;;;;5029715;28;19908;-69
2021/11/02 19:29:11;;;;;;;;;;;;;;;;;;5044045;28;20018;-69
2021/11/02 19:31:37;;;;;;;;;;;;;;;;;;5043723;28;19948;-70
2021/11/02 19:34:03;;;;;;;;;;;;;;;;;;5045131;28;19909;-69
2021/11/02 19:36:29;;;;;;;;;;;;;;;;;;5047707;28;20381;-69
2021/11/02 19:38:55;;;;;;;;;;;;;;;;;;5045134;28;19981;-69
2021/11/02 19:41:21;;;;;;;;;;;;;;;;;;5047571;28;19920;-69
2021/11/02 19:43:47;;;;;;;;;;;;;;;;;;5042334;28;20056;-69
2021/11/02 19:46:13;;;;;;;;;;;;;;;;;;5043665;28;19956;-69
2021/11/02 19:48:39;;;;;;;;;;;;;;;;;;5040669;28;19986;-69
2021/11/02 19:51:05;;;;;;;;;;;;;;;;;;5046519;28;20410;-70
2021/11/02 19:53:31;;;;;;;;;;;;;;;;;;5046697;28;20512;-69
2021/11/02 19:55:58;;;;;;;;;;;;;;;;;;5045353;28;20429;-70
2021/11/02 19:58:23;;;;;;;;;;;;;;;;;;5040180;28;20369;-69
2021/11/02 20:00:49;;;;;;;;;;;;;;;;;;5043153;28;19952;-69
2021/11/02 20:03:15;;;;;;;;;;;;;;;;;;5027723;28;19939;-69
2021/11/02 20:05:41;;;;;;;;;;;;;;;;;;5045231;28;19921;-69
2021/11/02 20:08:07;;;;;;;;;;;;;;;;;;5042924;28;19952;-69
2021/11/02 20:10:33;;;;;;;;;;;;;;;;;;5043738;28;20295;-69
2021/11/02 20:13:00;;;;;;;;;;;;;;;;;;5042595;28;19948;-70